sensor_id;sensor_type;location;lat;lon;timestamp;temperature;humidity
18153;DHT22;9202;51.578;7.734;2022-07-26T00:01:39;20.10;99.90
18153;DHT22;9202;51.578;7.734;2022-07-26T00:03:43;20.10;99.90
18153;DHT22;9202;51.578;7.734;2022-07-26T00:05:46;20.10;99.90
18153;DHT22;9202;51.578;7.734;2022-07-26T00:07:50;20.10;99.90
18153;DHT22;9202;51.578;7.734;2022-07-26T00:09:55;20.10;99.90
18153;DHT22;9202;51.578;7.734;2022-07-26T00:11:59;20.10;99.90
18153;DHT22;9202;51.578;7.734;2022-07-26T00:14:04;20.10;99.90
18153;DHT22;9202;51.578;7.734;2022-07-26T00:16:09;20.10;99.90
18153;DHT22;9202;51.578;7.734;2022-07-26T00:18:13;20.00;99.90
18153;DHT22;9202;51.578;7.734;2022-07-26T00:20:17;20.00;99.90
18153;DHT22;9202;51.578;7.734;2022-07-26T00:22:20;20.00;99.90
18153;DHT22;9202;51.578;7.734;2022-07-26T00:24:41;20.00;99.90
18153;DHT22;9202;51.578;7.734;2022-07-26T00:26:44;20.00;99.90
18153;DHT22;9202;51.578;7.734;2022-07-26T00:28:48;20.00;99.90
18153;DHT22;9202;51.578;7.734;2022-07-26T00:30:52;19.90;99.90
18153;DHT22;9202;51.578;7.734;2022-07-26T00:32:55;20.00;99.90
18153;DHT22;9202;51.578;7.734;2022-07-26T00:34:59;20.10;99.90
18153;DHT22;9202;51.578;7.734;2022-07-26T00:37:03;20.00;99.90
18153;DHT22;9202;51.578;7.734;2022-07-26T00:39:06;20.00;99.90
18153;DHT22;9202;51.578;7.734;2022-07-26T00:41:10;20.00;99.90
18153;DHT22;9202;51.578;7.734;2022-07-26T00:43:14;20.00;99.90
18153;DHT22;9202;51.578;7.734;2022-07-26T00:45:18;19.90;99.90
18153;DHT22;9202;51.578;7.734;2022-07-26T00:47:21;20.00;99.90
18153;DHT22;9202;51.578;7.734;2022-07-26T00:49:25;19.90;99.90
18153;DHT22;9202;51.578;7.734;2022-07-26T00:51:29;19.90;99.90
18153;DHT22;9202;51.578;7.734;2022-07-26T00:53:32;19.90;99.90
18153;DHT22;9202;51.578;7.734;2022-07-26T00:55:36;19.90;99.90
18153;DHT22;9202;51.578;7.734;2022-07-26T00:57:40;19.90;99.90
18153;DHT22;9202;51.578;7.734;2022-07-26T00:59:44;19.90;99.90
18153;DHT22;9202;51.578;7.734;2022-07-26T01:01:47;19.90;99.90
18153;DHT22;9202;51.578;7.734;2022-07-26T01:03:52;19.90;99.90
18153;DHT22;9202;51.578;7.734;2022-07-26T01:05:56;19.80;99.90
18153;DHT22;9202;51.578;7.734;2022-07-26T01:07:59;19.70;99.90
18153;DHT22;9202;51.578;7.734;2022-07-26T01:10:06;19.70;99.90
18153;DHT22;9202;51.578;7.734;2022-07-26T01:12:12;19.70;99.90
18153;DHT22;9202;51.578;7.734;2022-07-26T01:14:19;19.60;99.90
18153;DHT22;9202;51.578;7.734;2022-07-26T01:18:44;19.60;99.90
18153;DHT22;9202;51.578;7.734;2022-07-26T01:20:49;19.50;99.90
18153;DHT22;9202;51.578;7.734;2022-07-26T01:22:53;19.50;99.90
18153;DHT22;9202;51.578;7.734;2022-07-26T01:24:56;19.50;99.90
18153;DHT22;9202;51.578;7.734;2022-07-26T01:27:00;19.50;99.90
18153;DHT22;9202;51.578;7.734;2022-07-26T01:29:05;19.40;99.90
18153;DHT22;9202;51.578;7.734;2022-07-26T01:31:09;19.40;99.90
18153;DHT22;9202;51.578;7.734;2022-07-26T01:33:13;19.30;99.90
18153;DHT22;9202;51.578;7.734;2022-07-26T01:35:17;19.20;99.90
18153;DHT22;9202;51.578;7.734;2022-07-26T01:37:20;19.20;99.90
18153;DHT22;9202;51.578;7.734;2022-07-26T01:41:40;19.20;99.90
18153;DHT22;9202;51.578;7.734;2022-07-26T01:43:44;19.20;99.90
18153;DHT22;9202;51.578;7.734;2022-07-26T01:45:48;19.20;99.90
18153;DHT22;9202;51.578;7.734;2022-07-26T01:47:52;19.10;99.90
18153;DHT22;9202;51.578;7.734;2022-07-26T01:49:55;19.10;99.90
18153;DHT22;9202;51.578;7.734;2022-07-26T01:51:59;19.00;99.90
18153;DHT22;9202;51.578;7.734;2022-07-26T01:54:03;19.10;99.90
18153;DHT22;9202;51.578;7.734;2022-07-26T01:56:08;19.00;99.90
18153;DHT22;9202;51.578;7.734;2022-07-26T01:58:11;19.00;99.90
18153;DHT22;9202;51.578;7.734;2022-07-26T02:02:34;19.00;99.90
18153;DHT22;9202;51.578;7.734;2022-07-26T02:04:38;18.90;99.90
18153;DHT22;9202;51.578;7.734;2022-07-26T02:07:01;18.90;99.90
18153;DHT22;9202;51.578;7.734;2022-07-26T02:09:06;18.90;99.90
18153;DHT22;9202;51.578;7.734;2022-07-26T02:11:12;18.80;99.90
18153;DHT22;9202;51.578;7.734;2022-07-26T02:13:15;18.70;99.90
18153;DHT22;9202;51.578;7.734;2022-07-26T02:15:19;18.70;99.90
18153;DHT22;9202;51.578;7.734;2022-07-26T02:17:23;18.70;99.90
18153;DHT22;9202;51.578;7.734;2022-07-26T02:21:43;18.80;99.90
18153;DHT22;9202;51.578;7.734;2022-07-26T02:23:46;18.70;99.90
18153;DHT22;9202;51.578;7.734;2022-07-26T02:25:50;18.70;99.90
18153;DHT22;9202;51.578;7.734;2022-07-26T02:27:54;18.70;99.90
18153;DHT22;9202;51.578;7.734;2022-07-26T02:29:58;18.70;99.90
18153;DHT22;9202;51.578;7.734;2022-07-26T02:32:02;18.70;99.90
18153;DHT22;9202;51.578;7.734;2022-07-26T02:34:05;18.60;99.90
18153;DHT22;9202;51.578;7.734;2022-07-26T02:36:09;18.60;99.90
18153;DHT22;9202;51.578;7.734;2022-07-26T02:38:14;18.50;99.90
18153;DHT22;9202;51.578;7.734;2022-07-26T02:40:18;18.50;99.90
18153;DHT22;9202;51.578;7.734;2022-07-26T02:42:22;18.50;99.90
18153;DHT22;9202;51.578;7.734;2022-07-26T02:44:26;18.50;99.90
18153;DHT22;9202;51.578;7.734;2022-07-26T02:48:50;18.50;99.90
18153;DHT22;9202;51.578;7.734;2022-07-26T02:50:53;18.60;99.90
18153;DHT22;9202;51.578;7.734;2022-07-26T02:52:57;18.60;99.90
18153;DHT22;9202;51.578;7.734;2022-07-26T02:55:00;18.70;99.90
18153;DHT22;9202;51.578;7.734;2022-07-26T02:57:04;18.60;99.90
18153;DHT22;9202;51.578;7.734;2022-07-26T02:59:08;18.60;99.90
18153;DHT22;9202;51.578;7.734;2022-07-26T03:01:12;18.70;99.90
18153;DHT22;9202;51.578;7.734;2022-07-26T03:03:16;18.70;99.90
18153;DHT22;9202;51.578;7.734;2022-07-26T03:05:20;18.80;99.90
18153;DHT22;9202;51.578;7.734;2022-07-26T03:07:24;18.70;99.90
18153;DHT22;9202;51.578;7.734;2022-07-26T03:09:27;18.80;99.90
18153;DHT22;9202;51.578;7.734;2022-07-26T03:13:50;18.70;99.90
18153;DHT22;9202;51.578;7.734;2022-07-26T03:15:53;18.80;99.90
18153;DHT22;9202;51.578;7.734;2022-07-26T03:17:57;18.80;99.90
18153;DHT22;9202;51.578;7.734;2022-07-26T03:20:01;18.80;99.90
18153;DHT22;9202;51.578;7.734;2022-07-26T03:22:04;18.80;99.90
18153;DHT22;9202;51.578;7.734;2022-07-26T03:24:08;18.80;99.90
18153;DHT22;9202;51.578;7.734;2022-07-26T03:26:15;18.70;99.90
18153;DHT22;9202;51.578;7.734;2022-07-26T03:28:18;18.80;99.90
18153;DHT22;9202;51.578;7.734;2022-07-26T03:30:22;18.70;99.90
18153;DHT22;9202;51.578;7.734;2022-07-26T03:32:28;18.80;99.90
18153;DHT22;9202;51.578;7.734;2022-07-26T03:34:32;18.70;99.90
18153;DHT22;9202;51.578;7.734;2022-07-26T03:38:52;18.70;99.90
18153;DHT22;9202;51.578;7.734;2022-07-26T03:40:57;18.80;99.90
18153;DHT22;9202;51.578;7.734;2022-07-26T03:43:03;18.80;99.90
18153;DHT22;9202;51.578;7.734;2022-07-26T03:45:10;18.70;99.90
18153;DHT22;9202;51.578;7.734;2022-07-26T03:47:17;18.80;99.90
18153;DHT22;9202;51.578;7.734;2022-07-26T03:49:23;18.70;99.90
18153;DHT22;9202;51.578;7.734;2022-07-26T03:51:30;18.80;99.90
18153;DHT22;9202;51.578;7.734;2022-07-26T03:55:53;18.70;99.90
18153;DHT22;9202;51.578;7.734;2022-07-26T03:58:19;18.80;99.90
18153;DHT22;9202;51.578;7.734;2022-07-26T04:02:43;18.80;99.90
18153;DHT22;9202;51.578;7.734;2022-07-26T04:04:47;18.80;99.90
18153;DHT22;9202;51.578;7.734;2022-07-26T04:06:51;18.80;99.90
18153;DHT22;9202;51.578;7.734;2022-07-26T04:08:55;18.80;99.90
18153;DHT22;9202;51.578;7.734;2022-07-26T04:10:59;18.70;99.90
18153;DHT22;9202;51.578;7.734;2022-07-26T04:13:02;18.70;99.90
18153;DHT22;9202;51.578;7.734;2022-07-26T04:15:08;18.70;99.90
18153;DHT22;9202;51.578;7.734;2022-07-26T04:17:12;18.70;99.90
18153;DHT22;9202;51.578;7.734;2022-07-26T04:19:16;18.70;99.90
18153;DHT22;9202;51.578;7.734;2022-07-26T04:21:20;18.70;99.90
18153;DHT22;9202;51.578;7.734;2022-07-26T04:23:24;18.70;99.90
18153;DHT22;9202;51.578;7.734;2022-07-26T04:25:27;18.60;99.90
18153;DHT22;9202;51.578;7.734;2022-07-26T04:27:33;18.60;99.90
18153;DHT22;9202;51.578;7.734;2022-07-26T04:31:54;18.70;99.90
18153;DHT22;9202;51.578;7.734;2022-07-26T04:33:58;18.60;99.90
18153;DHT22;9202;51.578;7.734;2022-07-26T04:36:02;18.60;99.90
18153;DHT22;9202;51.578;7.734;2022-07-26T04:38:06;18.60;99.90
18153;DHT22;9202;51.578;7.734;2022-07-26T04:40:13;18.60;99.90
18153;DHT22;9202;51.578;7.734;2022-07-26T04:42:16;18.70;99.90
18153;DHT22;9202;51.578;7.734;2022-07-26T04:44:19;18.60;99.90
18153;DHT22;9202;51.578;7.734;2022-07-26T04:46:23;18.60;99.90
18153;DHT22;9202;51.578;7.734;2022-07-26T04:48:27;18.60;99.90
18153;DHT22;9202;51.578;7.734;2022-07-26T04:50:31;18.60;99.90
18153;DHT22;9202;51.578;7.734;2022-07-26T04:54:54;18.30;99.90
18153;DHT22;9202;51.578;7.734;2022-07-26T04:56:57;18.30;99.90
18153;DHT22;9202;51.578;7.734;2022-07-26T04:59:01;18.20;99.90
18153;DHT22;9202;51.578;7.734;2022-07-26T05:01:04;18.00;99.90
18153;DHT22;9202;51.578;7.734;2022-07-26T05:03:10;17.90;99.90
18153;DHT22;9202;51.578;7.734;2022-07-26T05:05:14;17.70;99.90
18153;DHT22;9202;51.578;7.734;2022-07-26T05:07:17;17.60;99.90
18153;DHT22;9202;51.578;7.734;2022-07-26T05:09:21;17.40;99.90
18153;DHT22;9202;51.578;7.734;2022-07-26T05:11:25;17.30;99.90
18153;DHT22;9202;51.578;7.734;2022-07-26T05:13:28;17.20;99.90
18153;DHT22;9202;51.578;7.734;2022-07-26T05:15:34;17.20;99.90
18153;DHT22;9202;51.578;7.734;2022-07-26T05:19:55;17.00;99.90
18153;DHT22;9202;51.578;7.734;2022-07-26T05:22:01;17.00;99.90
18153;DHT22;9202;51.578;7.734;2022-07-26T05:24:05;17.00;99.90
18153;DHT22;9202;51.578;7.734;2022-07-26T05:26:11;17.00;99.90
18153;DHT22;9202;51.578;7.734;2022-07-26T05:28:14;17.00;99.90
18153;DHT22;9202;51.578;7.734;2022-07-26T05:30:19;17.10;99.90
18153;DHT22;9202;51.578;7.734;2022-07-26T05:32:22;17.00;99.90
18153;DHT22;9202;51.578;7.734;2022-07-26T05:34:26;17.10;99.90
18153;DHT22;9202;51.578;7.734;2022-07-26T05:36:30;17.00;99.90
18153;DHT22;9202;51.578;7.734;2022-07-26T05:38:33;17.10;99.90
18153;DHT22;9202;51.578;7.734;2022-07-26T05:40:37;17.00;99.90
18153;DHT22;9202;51.578;7.734;2022-07-26T05:44:57;17.00;99.90
18153;DHT22;9202;51.578;7.734;2022-07-26T05:47:03;17.00;99.90
18153;DHT22;9202;51.578;7.734;2022-07-26T05:49:07;17.00;99.90
18153;DHT22;9202;51.578;7.734;2022-07-26T05:51:11;17.00;99.90
18153;DHT22;9202;51.578;7.734;2022-07-26T05:53:15;17.00;99.90
18153;DHT22;9202;51.578;7.734;2022-07-26T05:55:19;17.00;99.90
18153;DHT22;9202;51.578;7.734;2022-07-26T05:57:23;17.00;99.90
18153;DHT22;9202;51.578;7.734;2022-07-26T05:59:26;17.10;99.90
18153;DHT22;9202;51.578;7.734;2022-07-26T06:01:30;17.10;99.90
18153;DHT22;9202;51.578;7.734;2022-07-26T06:03:35;17.20;99.90
18153;DHT22;9202;51.578;7.734;2022-07-26T06:08:01;17.30;99.90
18153;DHT22;9202;51.578;7.734;2022-07-26T06:10:06;17.30;99.90
18153;DHT22;9202;51.578;7.734;2022-07-26T06:12:11;17.30;99.90
18153;DHT22;9202;51.578;7.734;2022-07-26T06:14:16;17.40;99.90
18153;DHT22;9202;51.578;7.734;2022-07-26T06:16:20;17.40;99.90
18153;DHT22;9202;51.578;7.734;2022-07-26T06:18:24;17.50;99.90
18153;DHT22;9202;51.578;7.734;2022-07-26T06:20:28;17.50;99.90
18153;DHT22;9202;51.578;7.734;2022-07-26T06:22:31;17.50;99.90
18153;DHT22;9202;51.578;7.734;2022-07-26T06:24:35;17.50;99.90
18153;DHT22;9202;51.578;7.734;2022-07-26T06:26:39;17.50;99.90
18153;DHT22;9202;51.578;7.734;2022-07-26T06:28:42;17.50;99.90
18153;DHT22;9202;51.578;7.734;2022-07-26T06:30:46;17.50;99.90
18153;DHT22;9202;51.578;7.734;2022-07-26T06:32:50;17.40;99.90
18153;DHT22;9202;51.578;7.734;2022-07-26T06:34:54;17.60;99.90
18153;DHT22;9202;51.578;7.734;2022-07-26T06:36:58;17.60;99.90
18153;DHT22;9202;51.578;7.734;2022-07-26T06:39:01;17.70;99.90
18153;DHT22;9202;51.578;7.734;2022-07-26T06:41:05;17.70;99.90
18153;DHT22;9202;51.578;7.734;2022-07-26T06:43:09;17.80;99.90
18153;DHT22;9202;51.578;7.734;2022-07-26T06:45:12;17.80;99.90
18153;DHT22;9202;51.578;7.734;2022-07-26T06:47:16;17.80;99.90
18153;DHT22;9202;51.578;7.734;2022-07-26T06:49:20;17.80;99.90
18153;DHT22;9202;51.578;7.734;2022-07-26T06:51:25;17.80;99.90
18153;DHT22;9202;51.578;7.734;2022-07-26T06:53:29;17.80;99.90
18153;DHT22;9202;51.578;7.734;2022-07-26T06:55:32;17.70;99.90
18153;DHT22;9202;51.578;7.734;2022-07-26T06:57:36;17.70;99.90
18153;DHT22;9202;51.578;7.734;2022-07-26T06:59:41;17.60;99.90
18153;DHT22;9202;51.578;7.734;2022-07-26T07:01:45;17.60;99.90
18153;DHT22;9202;51.578;7.734;2022-07-26T07:03:51;17.70;99.90
18153;DHT22;9202;51.578;7.734;2022-07-26T07:05:55;17.70;99.90
18153;DHT22;9202;51.578;7.734;2022-07-26T07:10:15;18.00;99.90
18153;DHT22;9202;51.578;7.734;2022-07-26T07:12:21;18.20;99.90
18153;DHT22;9202;51.578;7.734;2022-07-26T07:14:25;18.30;99.90
18153;DHT22;9202;51.578;7.734;2022-07-26T07:16:29;18.40;99.90
18153;DHT22;9202;51.578;7.734;2022-07-26T07:18:33;18.50;99.90
18153;DHT22;9202;51.578;7.734;2022-07-26T07:20:37;18.50;99.90
18153;DHT22;9202;51.578;7.734;2022-07-26T07:22:41;18.60;99.90
18153;DHT22;9202;51.578;7.734;2022-07-26T07:27:04;18.70;99.90
18153;DHT22;9202;51.578;7.734;2022-07-26T07:29:09;18.70;99.90
18153;DHT22;9202;51.578;7.734;2022-07-26T07:31:15;18.80;99.90
18153;DHT22;9202;51.578;7.734;2022-07-26T07:33:19;18.90;99.90
18153;DHT22;9202;51.578;7.734;2022-07-26T07:35:24;19.00;99.90
18153;DHT22;9202;51.578;7.734;2022-07-26T07:37:30;18.80;99.90
18153;DHT22;9202;51.578;7.734;2022-07-26T07:39:37;18.80;99.90
18153;DHT22;9202;51.578;7.734;2022-07-26T07:41:41;18.70;99.90
18153;DHT22;9202;51.578;7.734;2022-07-26T07:43:44;18.70;99.90
18153;DHT22;9202;51.578;7.734;2022-07-26T07:45:48;18.80;99.90
18153;DHT22;9202;51.578;7.734;2022-07-26T07:47:52;18.80;99.90
18153;DHT22;9202;51.578;7.734;2022-07-26T07:52:13;18.90;99.90
18153;DHT22;9202;51.578;7.734;2022-07-26T07:54:17;19.00;99.90
18153;DHT22;9202;51.578;7.734;2022-07-26T07:56:23;19.10;99.90
18153;DHT22;9202;51.578;7.734;2022-07-26T07:58:27;19.10;99.90
18153;DHT22;9202;51.578;7.734;2022-07-26T08:00:31;19.10;99.90
18153;DHT22;9202;51.578;7.734;2022-07-26T08:02:35;19.20;99.90
18153;DHT22;9202;51.578;7.734;2022-07-26T08:04:38;19.20;99.90
18153;DHT22;9202;51.578;7.734;2022-07-26T08:06:42;19.30;99.90
18153;DHT22;9202;51.578;7.734;2022-07-26T08:11:03;19.60;99.90
18153;DHT22;9202;51.578;7.734;2022-07-26T08:13:09;19.60;99.90
18153;DHT22;9202;51.578;7.734;2022-07-26T08:15:13;19.70;99.90
18153;DHT22;9202;51.578;7.734;2022-07-26T08:17:17;19.70;99.90
18153;DHT22;9202;51.578;7.734;2022-07-26T08:19:22;19.60;99.90
18153;DHT22;9202;51.578;7.734;2022-07-26T08:21:29;19.50;99.90
18153;DHT22;9202;51.578;7.734;2022-07-26T08:23:33;19.50;99.90
18153;DHT22;9202;51.578;7.734;2022-07-26T08:25:37;19.60;99.90
18153;DHT22;9202;51.578;7.734;2022-07-26T08:27:42;19.80;99.90
18153;DHT22;9202;51.578;7.734;2022-07-26T08:29:47;20.10;99.90
18153;DHT22;9202;51.578;7.734;2022-07-26T08:31:51;20.20;99.90
18153;DHT22;9202;51.578;7.734;2022-07-26T08:36:14;20.80;99.90
18153;DHT22;9202;51.578;7.734;2022-07-26T08:38:18;20.90;99.90
18153;DHT22;9202;51.578;7.734;2022-07-26T08:40:22;20.90;99.90
18153;DHT22;9202;51.578;7.734;2022-07-26T08:42:25;20.90;99.90
18153;DHT22;9202;51.578;7.734;2022-07-26T08:44:29;21.00;99.90
18153;DHT22;9202;51.578;7.734;2022-07-26T08:46:34;21.10;99.90
18153;DHT22;9202;51.578;7.734;2022-07-26T08:48:38;20.90;99.90
18153;DHT22;9202;51.578;7.734;2022-07-26T08:50:42;20.80;99.90
18153;DHT22;9202;51.578;7.734;2022-07-26T08:52:46;21.00;99.90
18153;DHT22;9202;51.578;7.734;2022-07-26T08:54:51;21.10;99.90
18153;DHT22;9202;51.578;7.734;2022-07-26T08:59:16;21.40;99.90
18153;DHT22;9202;51.578;7.734;2022-07-26T09:01:22;21.30;99.90
18153;DHT22;9202;51.578;7.734;2022-07-26T09:03:26;21.50;99.90
18153;DHT22;9202;51.578;7.734;2022-07-26T09:05:31;21.70;99.90
18153;DHT22;9202;51.578;7.734;2022-07-26T09:07:35;21.50;99.90
18153;DHT22;9202;51.578;7.734;2022-07-26T09:12:17;21.70;99.90
18153;DHT22;9202;51.578;7.734;2022-07-26T09:14:21;21.80;99.90
18153;DHT22;9202;51.578;7.734;2022-07-26T09:16:27;21.70;99.90
18153;DHT22;9202;51.578;7.734;2022-07-26T09:18:31;21.70;99.90
18153;DHT22;9202;51.578;7.734;2022-07-26T09:20:34;21.60;99.90
18153;DHT22;9202;51.578;7.734;2022-07-26T09:22:54;21.70;99.90
18153;DHT22;9202;51.578;7.734;2022-07-26T09:24:45;21.90;99.90
18153;DHT22;9202;51.578;7.734;2022-07-26T09:26:55;21.90;99.90
18153;DHT22;9202;51.578;7.734;2022-07-26T09:29:05;21.90;99.90
18153;DHT22;9202;51.578;7.734;2022-07-26T09:31:09;22.00;99.90
18153;DHT22;9202;51.578;7.734;2022-07-26T09:33:13;22.00;99.90
18153;DHT22;9202;51.578;7.734;2022-07-26T09:35:18;22.10;99.90
18153;DHT22;9202;51.578;7.734;2022-07-26T09:37:35;22.00;99.90
18153;DHT22;9202;51.578;7.734;2022-07-26T09:39:58;22.00;99.90
18153;DHT22;9202;51.578;7.734;2022-07-26T09:42:07;21.90;99.90
18153;DHT22;9202;51.578;7.734;2022-07-26T09:44:21;21.90;99.90
18153;DHT22;9202;51.578;7.734;2022-07-26T09:46:25;21.90;99.90
18153;DHT22;9202;51.578;7.734;2022-07-26T09:48:29;22.10;99.90
18153;DHT22;9202;51.578;7.734;2022-07-26T09:50:35;22.40;99.90
18153;DHT22;9202;51.578;7.734;2022-07-26T09:52:38;22.50;99.90
18153;DHT22;9202;51.578;7.734;2022-07-26T09:54:42;22.40;99.90
18153;DHT22;9202;51.578;7.734;2022-07-26T09:56:50;22.40;99.90
18153;DHT22;9202;51.578;7.734;2022-07-26T09:58:54;22.70;99.90
18153;DHT22;9202;51.578;7.734;2022-07-26T10:00:58;23.10;99.90
18153;DHT22;9202;51.578;7.734;2022-07-26T10:05:20;23.40;99.90
18153;DHT22;9202;51.578;7.734;2022-07-26T10:07:24;23.10;99.90
18153;DHT22;9202;51.578;7.734;2022-07-26T10:09:32;23.00;99.90
18153;DHT22;9202;51.578;7.734;2022-07-26T10:11:41;23.00;99.90
18153;DHT22;9202;51.578;7.734;2022-07-26T10:13:45;22.80;99.90
18153;DHT22;9202;51.578;7.734;2022-07-26T10:15:49;22.40;99.90
18153;DHT22;9202;51.578;7.734;2022-07-26T10:17:53;21.80;99.90
18153;DHT22;9202;51.578;7.734;2022-07-26T10:19:58;21.60;99.90
18153;DHT22;9202;51.578;7.734;2022-07-26T10:22:22;21.40;99.90
18153;DHT22;9202;51.578;7.734;2022-07-26T10:26:47;20.90;99.90
18153;DHT22;9202;51.578;7.734;2022-07-26T10:28:50;20.70;99.90
18153;DHT22;9202;51.578;7.734;2022-07-26T10:31:23;20.50;99.90
18153;DHT22;9202;51.578;7.734;2022-07-26T10:33:28;20.20;99.90
18153;DHT22;9202;51.578;7.734;2022-07-26T10:35:36;20.10;99.90
18153;DHT22;9202;51.578;7.734;2022-07-26T10:37:55;20.00;99.90
18153;DHT22;9202;51.578;7.734;2022-07-26T10:39:45;19.90;99.90
18153;DHT22;9202;51.578;7.734;2022-07-26T10:41:56;19.80;99.90
18153;DHT22;9202;51.578;7.734;2022-07-26T10:44:17;19.90;99.90
18153;DHT22;9202;51.578;7.734;2022-07-26T10:46:24;19.90;99.90
18153;DHT22;9202;51.578;7.734;2022-07-26T10:48:29;20.00;99.90
18153;DHT22;9202;51.578;7.734;2022-07-26T10:50:33;20.20;99.90
18153;DHT22;9202;51.578;7.734;2022-07-26T10:52:36;20.40;99.90
18153;DHT22;9202;51.578;7.734;2022-07-26T10:57:25;20.80;99.90
18153;DHT22;9202;51.578;7.734;2022-07-26T11:02:11;21.20;99.90
18153;DHT22;9202;51.578;7.734;2022-07-26T11:07:00;21.00;99.90
18153;DHT22;9202;51.578;7.734;2022-07-26T11:11:31;20.70;99.90
18153;DHT22;9202;51.578;7.734;2022-07-26T11:15:58;20.90;99.90
18153;DHT22;9202;51.578;7.734;2022-07-26T11:20:25;20.70;99.90
18153;DHT22;9202;51.578;7.734;2022-07-26T11:24:48;20.50;99.90
18153;DHT22;9202;51.578;7.734;2022-07-26T11:26:53;20.50;99.90
18153;DHT22;9202;51.578;7.734;2022-07-26T11:31:14;20.50;99.90
18153;DHT22;9202;51.578;7.734;2022-07-26T11:33:18;20.70;99.90
18153;DHT22;9202;51.578;7.734;2022-07-26T11:35:22;21.10;99.90
18153;DHT22;9202;51.578;7.734;2022-07-26T11:37:28;21.20;99.90
18153;DHT22;9202;51.578;7.734;2022-07-26T11:39:33;21.30;99.90
18153;DHT22;9202;51.578;7.734;2022-07-26T11:43:55;21.30;99.90
18153;DHT22;9202;51.578;7.734;2022-07-26T11:48:16;21.60;99.90
18153;DHT22;9202;51.578;7.734;2022-07-26T11:50:20;21.50;99.90
18153;DHT22;9202;51.578;7.734;2022-07-26T11:52:29;21.60;99.90
18153;DHT22;9202;51.578;7.734;2022-07-26T11:56:59;21.80;99.90
18153;DHT22;9202;51.578;7.734;2022-07-26T11:59:03;21.80;99.90
18153;DHT22;9202;51.578;7.734;2022-07-26T12:03:23;21.80;99.90
18153;DHT22;9202;51.578;7.734;2022-07-26T12:05:27;21.90;99.90
18153;DHT22;9202;51.578;7.734;2022-07-26T12:07:32;22.00;99.90
18153;DHT22;9202;51.578;7.734;2022-07-26T12:09:37;22.10;99.90
18153;DHT22;9202;51.578;7.734;2022-07-26T12:13:57;22.10;99.90
18153;DHT22;9202;51.578;7.734;2022-07-26T12:18:23;21.80;99.90
18153;DHT22;9202;51.578;7.734;2022-07-26T12:20:27;21.50;99.90
18153;DHT22;9202;51.578;7.734;2022-07-26T12:22:31;21.20;99.90
18153;DHT22;9202;51.578;7.734;2022-07-26T12:27:05;20.90;99.90
18153;DHT22;9202;51.578;7.734;2022-07-26T12:29:09;21.00;99.90
18153;DHT22;9202;51.578;7.734;2022-07-26T12:31:29;21.10;99.90
18153;DHT22;9202;51.578;7.734;2022-07-26T12:35:50;21.50;99.90
18153;DHT22;9202;51.578;7.734;2022-07-26T12:37:54;21.40;99.90
18153;DHT22;9202;51.578;7.734;2022-07-26T12:42:25;21.40;99.90
18153;DHT22;9202;51.578;7.734;2022-07-26T12:44:30;21.40;99.90
18153;DHT22;9202;51.578;7.734;2022-07-26T12:46:35;21.20;99.90
18153;DHT22;9202;51.578;7.734;2022-07-26T12:50:58;21.00;99.90
18153;DHT22;9202;51.578;7.734;2022-07-26T12:55:18;21.20;99.90
18153;DHT22;9202;51.578;7.734;2022-07-26T12:57:23;21.30;99.90
18153;DHT22;9202;51.578;7.734;2022-07-26T12:59:26;21.40;99.90
18153;DHT22;9202;51.578;7.734;2022-07-26T13:01:32;21.40;99.90
18153;DHT22;9202;51.578;7.734;2022-07-26T13:03:36;21.50;99.90
18153;DHT22;9202;51.578;7.734;2022-07-26T13:07:55;21.60;99.90
18153;DHT22;9202;51.578;7.734;2022-07-26T13:09:59;21.70;99.90
18153;DHT22;9202;51.578;7.734;2022-07-26T13:14:19;21.90;99.90
18153;DHT22;9202;51.578;7.734;2022-07-26T13:16:23;22.10;99.90
18153;DHT22;9202;51.578;7.734;2022-07-26T13:20:44;22.30;99.90
18153;DHT22;9202;51.578;7.734;2022-07-26T13:25:01;22.50;99.90
18153;DHT22;9202;51.578;7.734;2022-07-26T13:29:23;22.40;99.90
18153;DHT22;9202;51.578;7.734;2022-07-26T13:31:28;22.30;99.90
18153;DHT22;9202;51.578;7.734;2022-07-26T13:35:48;22.10;99.90
18153;DHT22;9202;51.578;7.734;2022-07-26T13:37:53;21.90;99.90
18153;DHT22;9202;51.578;7.734;2022-07-26T13:42:14;21.90;99.90
18153;DHT22;9202;51.578;7.734;2022-07-26T13:46:35;22.40;99.90
18153;DHT22;9202;51.578;7.734;2022-07-26T13:50:58;22.20;99.90
18153;DHT22;9202;51.578;7.734;2022-07-26T13:53:02;22.00;99.90
18153;DHT22;9202;51.578;7.734;2022-07-26T13:55:07;21.90;99.90
18153;DHT22;9202;51.578;7.734;2022-07-26T13:57:11;21.70;99.90
18153;DHT22;9202;51.578;7.734;2022-07-26T14:01:32;21.70;99.90
18153;DHT22;9202;51.578;7.734;2022-07-26T14:03:38;21.80;99.90
18153;DHT22;9202;51.578;7.734;2022-07-26T14:05:43;21.90;99.90
18153;DHT22;9202;51.578;7.734;2022-07-26T14:07:48;22.10;99.90
18153;DHT22;9202;51.578;7.734;2022-07-26T14:09:51;22.30;99.90
18153;DHT22;9202;51.578;7.734;2022-07-26T14:11:56;22.40;99.90
18153;DHT22;9202;51.578;7.734;2022-07-26T14:16:20;22.50;99.90
18153;DHT22;9202;51.578;7.734;2022-07-26T14:20:42;22.20;99.90
18153;DHT22;9202;51.578;7.734;2022-07-26T14:22:45;22.00;99.90
18153;DHT22;9202;51.578;7.734;2022-07-26T14:24:50;22.20;99.90
18153;DHT22;9202;51.578;7.734;2022-07-26T14:26:54;22.10;99.90
18153;DHT22;9202;51.578;7.734;2022-07-26T14:31:18;22.70;99.90
18153;DHT22;9202;51.578;7.734;2022-07-26T14:33:23;22.80;99.90
18153;DHT22;9202;51.578;7.734;2022-07-26T14:35:27;23.00;99.90
18153;DHT22;9202;51.578;7.734;2022-07-26T14:37:31;22.90;99.90
18153;DHT22;9202;51.578;7.734;2022-07-26T14:39:37;22.90;99.90
18153;DHT22;9202;51.578;7.734;2022-07-26T14:43:56;22.70;99.90
18153;DHT22;9202;51.578;7.734;2022-07-26T14:46:00;22.60;99.90
18153;DHT22;9202;51.578;7.734;2022-07-26T14:48:06;22.40;99.90
18153;DHT22;9202;51.578;7.734;2022-07-26T14:52:27;22.70;99.90
18153;DHT22;9202;51.578;7.734;2022-07-26T14:54:31;22.80;99.90
18153;DHT22;9202;51.578;7.734;2022-07-26T14:56:35;22.80;99.90
18153;DHT22;9202;51.578;7.734;2022-07-26T15:00:57;22.60;99.90
18153;DHT22;9202;51.578;7.734;2022-07-26T15:03:01;22.60;99.90
18153;DHT22;9202;51.578;7.734;2022-07-26T15:05:05;22.50;99.90
18153;DHT22;9202;51.578;7.734;2022-07-26T15:07:09;22.30;99.90
18153;DHT22;9202;51.578;7.734;2022-07-26T15:09:13;22.10;99.90
18153;DHT22;9202;51.578;7.734;2022-07-26T15:11:16;22.00;99.90
18153;DHT22;9202;51.578;7.734;2022-07-26T15:13:20;21.90;99.90
18153;DHT22;9202;51.578;7.734;2022-07-26T15:15:24;21.70;99.90
18153;DHT22;9202;51.578;7.734;2022-07-26T15:17:28;21.60;99.90
18153;DHT22;9202;51.578;7.734;2022-07-26T15:19:31;21.60;99.90
18153;DHT22;9202;51.578;7.734;2022-07-26T15:23:58;21.50;99.90
18153;DHT22;9202;51.578;7.734;2022-07-26T15:26:02;21.30;99.90
18153;DHT22;9202;51.578;7.734;2022-07-26T15:30:23;21.30;99.90
18153;DHT22;9202;51.578;7.734;2022-07-26T15:32:28;21.30;99.90
18153;DHT22;9202;51.578;7.734;2022-07-26T15:34:32;21.30;99.90
18153;DHT22;9202;51.578;7.734;2022-07-26T15:36:36;21.20;99.90
18153;DHT22;9202;51.578;7.734;2022-07-26T15:41:03;21.20;99.90
18153;DHT22;9202;51.578;7.734;2022-07-26T15:45:25;21.50;99.90